sensor_id;sensor_type;location;lat;lon;timestamp;P1;durP1;ratioP1;P2;durP2;ratioP2
78716;SDS011;68045;50.042;14.432;2023-12-07T00:00:31;16.58;;;8.85;;
78716;SDS011;68045;50.042;14.432;2023-12-07T00:04:52;9.48;;;5.80;;
78716;SDS011;68045;50.042;14.432;2023-12-07T00:08:53;13.10;;;7.28;;
78716;SDS011;68045;50.042;14.432;2023-12-07T00:12:53;17.63;;;7.93;;
78716;SDS011;68045;50.042;14.432;2023-12-07T00:16:54;13.45;;;7.15;;
78716;SDS011;68045;50.042;14.432;2023-12-07T00:20:55;14.73;;;7.30;;
78716;SDS011;68045;50.042;14.432;2023-12-07T00:24:56;19.30;;;8.23;;
78716;SDS011;68045;50.042;14.432;2023-12-07T00:28:57;13.70;;;7.18;;
78716;SDS011;68045;50.042;14.432;2023-12-07T00:32:57;15.55;;;5.80;;
78716;SDS011;68045;50.042;14.432;2023-12-07T00:36:59;10.73;;;5.15;;
78716;SDS011;68045;50.042;14.432;2023-12-07T00:41:00;14.13;;;5.80;;
78716;SDS011;68045;50.042;14.432;2023-12-07T00:45:01;11.50;;;6.47;;
78716;SDS011;68045;50.042;14.432;2023-12-07T00:49:02;12.52;;;6.88;;
78716;SDS011;68045;50.042;14.432;2023-12-07T00:53:03;10.65;;;6.60;;
78716;SDS011;68045;50.042;14.432;2023-12-07T00:57:04;12.30;;;6.57;;
78716;SDS011;68045;50.042;14.432;2023-12-07T01:01:04;10.52;;;6.38;;
78716;SDS011;68045;50.042;14.432;2023-12-07T01:05:05;14.52;;;6.70;;
78716;SDS011;68045;50.042;14.432;2023-12-07T01:09:07;13.52;;;6.47;;
78716;SDS011;68045;50.042;14.432;2023-12-07T01:13:08;10.05;;;6.15;;
78716;SDS011;68045;50.042;14.432;2023-12-07T01:17:09;11.63;;;5.43;;
78716;SDS011;68045;50.042;14.432;2023-12-07T01:21:10;14.30;;;6.75;;
78716;SDS011;68045;50.042;14.432;2023-12-07T01:25:11;12.75;;;6.93;;
78716;SDS011;68045;50.042;14.432;2023-12-07T01:29:12;13.93;;;7.13;;
78716;SDS011;68045;50.042;14.432;2023-12-07T01:33:14;13.18;;;7.03;;
78716;SDS011;68045;50.042;14.432;2023-12-07T01:37:15;12.90;;;6.85;;
78716;SDS011;68045;50.042;14.432;2023-12-07T01:41:16;9.73;;;6.00;;
78716;SDS011;68045;50.042;14.432;2023-12-07T01:45:17;12.13;;;6.22;;
78716;SDS011;68045;50.042;14.432;2023-12-07T01:49:18;9.88;;;6.07;;
78716;SDS011;68045;50.042;14.432;2023-12-07T01:53:19;10.63;;;4.70;;
78716;SDS011;68045;50.042;14.432;2023-12-07T01:57:22;10.10;;;6.10;;
78716;SDS011;68045;50.042;14.432;2023-12-07T02:01:24;12.82;;;6.20;;
78716;SDS011;68045;50.042;14.432;2023-12-07T02:05:24;9.75;;;5.03;;
78716;SDS011;68045;50.042;14.432;2023-12-07T02:09:25;11.70;;;5.90;;
78716;SDS011;68045;50.042;14.432;2023-12-07T02:13:26;13.63;;;6.85;;
78716;SDS011;68045;50.042;14.432;2023-12-07T02:21:35;13.20;;;6.03;;
78716;SDS011;68045;50.042;14.432;2023-12-07T02:25:42;10.57;;;5.47;;
78716;SDS011;68045;50.042;14.432;2023-12-07T02:29:51;12.05;;;5.88;;
78716;SDS011;68045;50.042;14.432;2023-12-07T02:33:51;16.15;;;6.38;;
78716;SDS011;68045;50.042;14.432;2023-12-07T02:37:52;13.27;;;7.15;;
78716;SDS011;68045;50.042;14.432;2023-12-07T02:41:55;10.82;;;6.32;;
78716;SDS011;68045;50.042;14.432;2023-12-07T02:45:56;11.48;;;5.03;;
78716;SDS011;68045;50.042;14.432;2023-12-07T02:49:57;10.65;;;5.65;;
78716;SDS011;68045;50.042;14.432;2023-12-07T02:53:58;11.02;;;5.95;;
78716;SDS011;68045;50.042;14.432;2023-12-07T02:57:59;11.57;;;6.50;;
78716;SDS011;68045;50.042;14.432;2023-12-07T03:02:00;11.77;;;6.22;;
78716;SDS011;68045;50.042;14.432;2023-12-07T03:06:01;9.95;;;5.30;;
78716;SDS011;68045;50.042;14.432;2023-12-07T03:10:02;12.98;;;6.22;;
78716;SDS011;68045;50.042;14.432;2023-12-07T03:14:03;11.02;;;6.05;;
78716;SDS011;68045;50.042;14.432;2023-12-07T03:18:04;6.88;;;4.53;;
78716;SDS011;68045;50.042;14.432;2023-12-07T03:22:05;10.68;;;6.15;;
78716;SDS011;68045;50.042;14.432;2023-12-07T03:26:09;11.60;;;6.53;;
78716;SDS011;68045;50.042;14.432;2023-12-07T03:30:10;14.23;;;6.80;;
78716;SDS011;68045;50.042;14.432;2023-12-07T03:34:12;12.80;;;6.18;;
78716;SDS011;68045;50.042;14.432;2023-12-07T03:38:16;9.25;;;6.07;;
78716;SDS011;68045;50.042;14.432;2023-12-07T03:42:17;14.20;;;6.85;;
78716;SDS011;68045;50.042;14.432;2023-12-07T03:46:18;14.45;;;7.03;;
78716;SDS011;68045;50.042;14.432;2023-12-07T03:50:18;9.20;;;5.00;;
78716;SDS011;68045;50.042;14.432;2023-12-07T03:54:19;9.43;;;4.95;;
78716;SDS011;68045;50.042;14.432;2023-12-07T03:58:20;10.23;;;5.57;;
78716;SDS011;68045;50.042;14.432;2023-12-07T04:02:21;9.90;;;5.30;;
78716;SDS011;68045;50.042;14.432;2023-12-07T04:06:22;11.43;;;6.32;;
78716;SDS011;68045;50.042;14.432;2023-12-07T04:10:24;11.45;;;6.22;;
78716;SDS011;68045;50.042;14.432;2023-12-07T04:14:24;11.43;;;5.40;;
78716;SDS011;68045;50.042;14.432;2023-12-07T04:18:26;10.88;;;6.07;;
78716;SDS011;68045;50.042;14.432;2023-12-07T04:22:27;10.90;;;5.45;;
78716;SDS011;68045;50.042;14.432;2023-12-07T04:26:29;9.50;;;6.38;;
78716;SDS011;68045;50.042;14.432;2023-12-07T04:30:29;9.60;;;4.63;;
78716;SDS011;68045;50.042;14.432;2023-12-07T04:34:30;11.93;;;5.90;;
78716;SDS011;68045;50.042;14.432;2023-12-07T04:38:31;12.63;;;5.65;;
78716;SDS011;68045;50.042;14.432;2023-12-07T04:42:32;11.60;;;6.55;;
78716;SDS011;68045;50.042;14.432;2023-12-07T04:46:33;13.05;;;6.53;;
78716;SDS011;68045;50.042;14.432;2023-12-07T04:50:35;8.55;;;4.80;;
78716;SDS011;68045;50.042;14.432;2023-12-07T04:54:36;10.50;;;5.65;;
78716;SDS011;68045;50.042;14.432;2023-12-07T04:58:37;10.00;;;5.28;;
78716;SDS011;68045;50.042;14.432;2023-12-07T05:02:38;11.35;;;5.82;;
78716;SDS011;68045;50.042;14.432;2023-12-07T05:06:38;10.55;;;5.45;;
78716;SDS011;68045;50.042;14.432;2023-12-07T05:10:39;14.93;;;6.38;;
78716;SDS011;68045;50.042;14.432;2023-12-07T05:14:40;9.77;;;5.90;;
78716;SDS011;68045;50.042;14.432;2023-12-07T05:18:41;14.50;;;6.43;;
78716;SDS011;68045;50.042;14.432;2023-12-07T05:22:41;12.27;;;6.43;;
78716;SDS011;68045;50.042;14.432;2023-12-07T05:26:42;13.23;;;6.40;;
78716;SDS011;68045;50.042;14.432;2023-12-07T05:30:46;14.98;;;7.47;;
78716;SDS011;68045;50.042;14.432;2023-12-07T05:34:47;10.52;;;5.90;;
78716;SDS011;68045;50.042;14.432;2023-12-07T05:38:48;12.25;;;7.03;;
78716;SDS011;68045;50.042;14.432;2023-12-07T05:42:49;9.88;;;5.35;;
78716;SDS011;68045;50.042;14.432;2023-12-07T05:46:51;15.25;;;7.07;;
78716;SDS011;68045;50.042;14.432;2023-12-07T05:50:52;13.52;;;6.57;;
78716;SDS011;68045;50.042;14.432;2023-12-07T05:54:53;11.60;;;6.50;;
78716;SDS011;68045;50.042;14.432;2023-12-07T05:58:54;11.90;;;5.72;;
78716;SDS011;68045;50.042;14.432;2023-12-07T06:02:55;15.20;;;6.88;;
78716;SDS011;68045;50.042;14.432;2023-12-07T06:06:56;12.93;;;6.28;;
78716;SDS011;68045;50.042;14.432;2023-12-07T06:10:56;12.63;;;6.65;;
78716;SDS011;68045;50.042;14.432;2023-12-07T06:14:57;10.80;;;6.32;;
78716;SDS011;68045;50.042;14.432;2023-12-07T06:18:58;14.13;;;7.05;;
78716;SDS011;68045;50.042;14.432;2023-12-07T06:23:00;11.18;;;6.28;;
78716;SDS011;68045;50.042;14.432;2023-12-07T06:27:01;13.50;;;6.00;;
78716;SDS011;68045;50.042;14.432;2023-12-07T06:31:05;11.18;;;5.65;;
78716;SDS011;68045;50.042;14.432;2023-12-07T06:35:07;18.90;;;7.97;;
78716;SDS011;68045;50.042;14.432;2023-12-07T06:39:09;11.18;;;6.10;;
78716;SDS011;68045;50.042;14.432;2023-12-07T06:43:09;17.85;;;7.43;;
78716;SDS011;68045;50.042;14.432;2023-12-07T06:47:10;13.63;;;6.88;;
78716;SDS011;68045;50.042;14.432;2023-12-07T06:51:11;19.55;;;8.68;;
78716;SDS011;68045;50.042;14.432;2023-12-07T06:55:15;16.10;;;7.00;;
78716;SDS011;68045;50.042;14.432;2023-12-07T06:59:15;19.98;;;7.85;;
78716;SDS011;68045;50.042;14.432;2023-12-07T07:03:16;14.90;;;6.80;;
78716;SDS011;68045;50.042;14.432;2023-12-07T07:07:17;17.90;;;9.13;;
78716;SDS011;68045;50.042;14.432;2023-12-07T07:11:18;14.98;;;7.00;;
78716;SDS011;68045;50.042;14.432;2023-12-07T07:15:19;15.77;;;6.97;;
78716;SDS011;68045;50.042;14.432;2023-12-07T07:19:20;12.98;;;7.40;;
78716;SDS011;68045;50.042;14.432;2023-12-07T07:23:21;23.60;;;8.90;;
78716;SDS011;68045;50.042;14.432;2023-12-07T07:27:21;17.63;;;7.88;;
78716;SDS011;68045;50.042;14.432;2023-12-07T07:31:22;16.52;;;7.20;;
78716;SDS011;68045;50.042;14.432;2023-12-07T07:35:23;11.25;;;6.65;;
78716;SDS011;68045;50.042;14.432;2023-12-07T07:39:24;18.58;;;8.70;;
78716;SDS011;68045;50.042;14.432;2023-12-07T07:43:25;12.35;;;7.28;;
78716;SDS011;68045;50.042;14.432;2023-12-07T07:47:26;15.18;;;7.18;;
78716;SDS011;68045;50.042;14.432;2023-12-07T07:51:27;15.00;;;7.95;;
78716;SDS011;68045;50.042;14.432;2023-12-07T07:55:27;14.90;;;7.47;;
78716;SDS011;68045;50.042;14.432;2023-12-07T07:59:28;17.88;;;9.10;;
78716;SDS011;68045;50.042;14.432;2023-12-07T08:03:29;18.80;;;7.90;;
78716;SDS011;68045;50.042;14.432;2023-12-07T08:07:30;16.80;;;8.93;;
78716;SDS011;68045;50.042;14.432;2023-12-07T08:11:31;16.35;;;7.70;;
78716;SDS011;68045;50.042;14.432;2023-12-07T08:15:34;16.40;;;8.48;;
78716;SDS011;68045;50.042;14.432;2023-12-07T08:19:35;15.20;;;6.93;;
78716;SDS011;68045;50.042;14.432;2023-12-07T08:23:36;16.83;;;8.38;;
78716;SDS011;68045;50.042;14.432;2023-12-07T08:27:37;17.98;;;7.82;;
78716;SDS011;68045;50.042;14.432;2023-12-07T08:31:40;17.58;;;8.18;;
78716;SDS011;68045;50.042;14.432;2023-12-07T08:35:41;22.65;;;8.88;;
78716;SDS011;68045;50.042;14.432;2023-12-07T08:39:41;18.98;;;9.73;;
78716;SDS011;68045;50.042;14.432;2023-12-07T08:43:42;16.55;;;8.70;;
78716;SDS011;68045;50.042;14.432;2023-12-07T08:47:43;19.02;;;8.23;;
78716;SDS011;68045;50.042;14.432;2023-12-07T08:51:44;20.40;;;9.82;;
78716;SDS011;68045;50.042;14.432;2023-12-07T08:55:45;13.07;;;8.05;;
78716;SDS011;68045;50.042;14.432;2023-12-07T08:59:46;16.27;;;8.45;;
78716;SDS011;68045;50.042;14.432;2023-12-07T09:03:47;18.45;;;9.05;;
78716;SDS011;68045;50.042;14.432;2023-12-07T09:07:47;16.73;;;9.63;;
78716;SDS011;68045;50.042;14.432;2023-12-07T09:11:48;17.40;;;8.63;;
78716;SDS011;68045;50.042;14.432;2023-12-07T09:15:49;21.15;;;10.15;;
78716;SDS011;68045;50.042;14.432;2023-12-07T09:19:50;18.27;;;9.10;;
78716;SDS011;68045;50.042;14.432;2023-12-07T09:23:51;22.45;;;8.80;;
78716;SDS011;68045;50.042;14.432;2023-12-07T09:27:53;30.40;;;11.48;;
78716;SDS011;68045;50.042;14.432;2023-12-07T09:31:53;20.98;;;9.00;;
78716;SDS011;68045;50.042;14.432;2023-12-07T09:35:54;15.10;;;7.63;;
78716;SDS011;68045;50.042;14.432;2023-12-07T09:39:55;22.17;;;10.13;;
78716;SDS011;68045;50.042;14.432;2023-12-07T09:43:56;24.13;;;11.13;;
78716;SDS011;68045;50.042;14.432;2023-12-07T09:47:57;34.50;;;14.88;;
78716;SDS011;68045;50.042;14.432;2023-12-07T09:52:00;24.80;;;12.60;;
78716;SDS011;68045;50.042;14.432;2023-12-07T09:56:03;25.02;;;11.80;;
78716;SDS011;68045;50.042;14.432;2023-12-07T10:00:05;19.52;;;9.50;;
78716;SDS011;68045;50.042;14.432;2023-12-07T10:04:19;21.55;;;12.05;;
78716;SDS011;68045;50.042;14.432;2023-12-07T10:08:31;26.13;;;11.48;;
78716;SDS011;68045;50.042;14.432;2023-12-07T10:12:40;36.30;;;15.85;;
78716;SDS011;68045;50.042;14.432;2023-12-07T10:16:53;33.25;;;14.48;;
78716;SDS011;68045;50.042;14.432;2023-12-07T10:20:58;33.95;;;15.13;;
78716;SDS011;68045;50.042;14.432;2023-12-07T10:24:59;25.02;;;11.73;;
78716;SDS011;68045;50.042;14.432;2023-12-07T10:29:00;19.67;;;10.43;;
78716;SDS011;68045;50.042;14.432;2023-12-07T10:33:02;26.10;;;11.90;;
78716;SDS011;68045;50.042;14.432;2023-12-07T10:37:10;26.52;;;10.63;;
78716;SDS011;68045;50.042;14.432;2023-12-07T10:41:12;20.88;;;12.18;;
78716;SDS011;68045;50.042;14.432;2023-12-07T10:45:13;23.02;;;11.38;;
78716;SDS011;68045;50.042;14.432;2023-12-07T10:49:17;22.23;;;11.43;;
78716;SDS011;68045;50.042;14.432;2023-12-07T10:53:29;26.75;;;13.05;;
78716;SDS011;68045;50.042;14.432;2023-12-07T10:57:40;20.58;;;10.52;;
78716;SDS011;68045;50.042;14.432;2023-12-07T11:01:43;25.17;;;12.13;;
78716;SDS011;68045;50.042;14.432;2023-12-07T11:05:44;26.05;;;11.82;;
78716;SDS011;68045;50.042;14.432;2023-12-07T11:09:47;22.23;;;10.00;;
78716;SDS011;68045;50.042;14.432;2023-12-07T11:13:59;18.33;;;9.65;;
78716;SDS011;68045;50.042;14.432;2023-12-07T11:18:03;23.23;;;10.93;;
78716;SDS011;68045;50.042;14.432;2023-12-07T11:22:05;18.27;;;9.52;;
78716;SDS011;68045;50.042;14.432;2023-12-07T11:26:07;24.17;;;10.65;;
78716;SDS011;68045;50.042;14.432;2023-12-07T11:30:08;17.05;;;8.35;;
78716;SDS011;68045;50.042;14.432;2023-12-07T11:34:10;21.00;;;10.23;;
78716;SDS011;68045;50.042;14.432;2023-12-07T11:38:14;19.55;;;9.57;;
78716;SDS011;68045;50.042;14.432;2023-12-07T11:42:19;20.50;;;9.63;;
78716;SDS011;68045;50.042;14.432;2023-12-07T11:46:20;21.27;;;10.80;;
78716;SDS011;68045;50.042;14.432;2023-12-07T11:50:20;23.88;;;9.73;;
78716;SDS011;68045;50.042;14.432;2023-12-07T11:54:27;25.63;;;10.63;;
78716;SDS011;68045;50.042;14.432;2023-12-07T11:58:34;17.30;;;9.25;;
78716;SDS011;68045;50.042;14.432;2023-12-07T12:02:35;20.80;;;9.75;;
78716;SDS011;68045;50.042;14.432;2023-12-07T12:06:39;22.15;;;9.45;;
78716;SDS011;68045;50.042;14.432;2023-12-07T12:10:40;21.25;;;10.27;;
78716;SDS011;68045;50.042;14.432;2023-12-07T12:14:44;24.15;;;10.73;;
78716;SDS011;68045;50.042;14.432;2023-12-07T12:18:46;17.30;;;9.63;;
78716;SDS011;68045;50.042;14.432;2023-12-07T12:22:49;18.95;;;9.63;;
78716;SDS011;68045;50.042;14.432;2023-12-07T12:26:50;23.52;;;10.60;;
78716;SDS011;68045;50.042;14.432;2023-12-07T12:30:51;19.25;;;10.50;;
78716;SDS011;68045;50.042;14.432;2023-12-07T12:34:52;22.70;;;10.93;;
78716;SDS011;68045;50.042;14.432;2023-12-07T12:38:53;21.80;;;11.00;;
78716;SDS011;68045;50.042;14.432;2023-12-07T12:42:54;24.05;;;10.77;;
78716;SDS011;68045;50.042;14.432;2023-12-07T12:46:56;21.35;;;11.07;;
78716;SDS011;68045;50.042;14.432;2023-12-07T12:50:57;17.42;;;9.10;;
78716;SDS011;68045;50.042;14.432;2023-12-07T12:55:10;21.17;;;11.32;;
78716;SDS011;68045;50.042;14.432;2023-12-07T12:59:11;24.48;;;10.60;;
78716;SDS011;68045;50.042;14.432;2023-12-07T13:03:12;20.38;;;8.98;;
78716;SDS011;68045;50.042;14.432;2023-12-07T13:07:14;20.33;;;9.93;;
78716;SDS011;68045;50.042;14.432;2023-12-07T13:11:17;19.38;;;8.43;;
78716;SDS011;68045;50.042;14.432;2023-12-07T13:15:19;20.88;;;9.38;;
78716;SDS011;68045;50.042;14.432;2023-12-07T13:19:19;16.70;;;8.57;;
78716;SDS011;68045;50.042;14.432;2023-12-07T13:23:21;15.75;;;8.25;;
78716;SDS011;68045;50.042;14.432;2023-12-07T13:27:21;25.92;;;8.68;;
78716;SDS011;68045;50.042;14.432;2023-12-07T13:31:22;20.95;;;9.75;;
78716;SDS011;68045;50.042;14.432;2023-12-07T13:35:23;23.65;;;9.57;;
78716;SDS011;68045;50.042;14.432;2023-12-07T13:39:24;23.27;;;10.05;;
78716;SDS011;68045;50.042;14.432;2023-12-07T13:43:26;25.08;;;10.18;;
78716;SDS011;68045;50.042;14.432;2023-12-07T13:47:27;21.98;;;10.02;;
78716;SDS011;68045;50.042;14.432;2023-12-07T13:51:31;19.42;;;8.43;;
78716;SDS011;68045;50.042;14.432;2023-12-07T13:55:36;14.90;;;7.13;;
78716;SDS011;68045;50.042;14.432;2023-12-07T13:59:38;15.80;;;7.15;;
78716;SDS011;68045;50.042;14.432;2023-12-07T14:03:39;18.77;;;7.50;;
78716;SDS011;68045;50.042;14.432;2023-12-07T14:07:40;16.90;;;8.05;;
78716;SDS011;68045;50.042;14.432;2023-12-07T14:11:41;25.90;;;10.07;;
78716;SDS011;68045;50.042;14.432;2023-12-07T14:15:41;17.45;;;8.50;;
78716;SDS011;68045;50.042;14.432;2023-12-07T14:19:42;14.52;;;7.22;;
78716;SDS011;68045;50.042;14.432;2023-12-07T14:23:44;17.58;;;8.80;;
78716;SDS011;68045;50.042;14.432;2023-12-07T14:27:44;17.35;;;8.40;;
78716;SDS011;68045;50.042;14.432;2023-12-07T14:31:46;15.95;;;7.95;;
78716;SDS011;68045;50.042;14.432;2023-12-07T14:35:48;18.50;;;9.45;;
78716;SDS011;68045;50.042;14.432;2023-12-07T14:39:50;18.17;;;8.73;;
78716;SDS011;68045;50.042;14.432;2023-12-07T14:43:51;17.50;;;8.02;;
78716;SDS011;68045;50.042;14.432;2023-12-07T14:47:52;16.98;;;9.40;;
78716;SDS011;68045;50.042;14.432;2023-12-07T14:51:54;19.63;;;8.55;;
78716;SDS011;68045;50.042;14.432;2023-12-07T14:55:59;17.48;;;9.55;;
78716;SDS011;68045;50.042;14.432;2023-12-07T15:00:00;17.27;;;8.25;;
78716;SDS011;68045;50.042;14.432;2023-12-07T15:04:05;18.65;;;9.68;;
78716;SDS011;68045;50.042;14.432;2023-12-07T15:08:05;22.08;;;10.60;;
78716;SDS011;68045;50.042;14.432;2023-12-07T15:12:06;19.25;;;9.65;;
78716;SDS011;68045;50.042;14.432;2023-12-07T15:16:07;27.38;;;10.63;;
78716;SDS011;68045;50.042;14.432;2023-12-07T15:20:09;19.92;;;8.88;;
78716;SDS011;68045;50.042;14.432;2023-12-07T15:24:11;18.88;;;10.27;;
78716;SDS011;68045;50.042;14.432;2023-12-07T15:28:12;21.10;;;8.43;;
78716;SDS011;68045;50.042;14.432;2023-12-07T15:32:14;23.77;;;9.77;;
78716;SDS011;68045;50.042;14.432;2023-12-07T15:36:16;21.40;;;10.63;;
78716;SDS011;68045;50.042;14.432;2023-12-07T15:40:17;20.88;;;10.38;;
78716;SDS011;68045;50.042;14.432;2023-12-07T15:44:18;23.63;;;8.90;;
78716;SDS011;68045;50.042;14.432;2023-12-07T15:48:19;18.67;;;9.88;;
78716;SDS011;68045;50.042;14.432;2023-12-07T15:52:20;21.63;;;9.05;;
78716;SDS011;68045;50.042;14.432;2023-12-07T15:56:21;20.85;;;11.10;;
78716;SDS011;68045;50.042;14.432;2023-12-07T16:00:22;19.98;;;9.50;;
78716;SDS011;68045;50.042;14.432;2023-12-07T16:04:23;24.67;;;12.02;;
78716;SDS011;68045;50.042;14.432;2023-12-07T16:08:24;25.58;;;12.23;;
78716;SDS011;68045;50.042;14.432;2023-12-07T16:12:24;24.10;;;11.35;;
78716;SDS011;68045;50.042;14.432;2023-12-07T16:16:25;28.35;;;12.75;;
78716;SDS011;68045;50.042;14.432;2023-12-07T16:20:26;27.45;;;12.52;;
78716;SDS011;68045;50.042;14.432;2023-12-07T16:24:27;25.00;;;11.70;;
78716;SDS011;68045;50.042;14.432;2023-12-07T16:28:29;25.45;;;12.02;;
78716;SDS011;68045;50.042;14.432;2023-12-07T16:32:30;36.35;;;13.90;;
78716;SDS011;68045;50.042;14.432;2023-12-07T16:36:30;24.05;;;12.43;;
78716;SDS011;68045;50.042;14.432;2023-12-07T16:40:31;25.20;;;11.88;;
78716;SDS011;68045;50.042;14.432;2023-12-07T16:44:32;27.90;;;13.65;;
78716;SDS011;68045;50.042;14.432;2023-12-07T16:48:33;34.65;;;14.07;;
78716;SDS011;68045;50.042;14.432;2023-12-07T16:52:35;33.17;;;13.55;;
78716;SDS011;68045;50.042;14.432;2023-12-07T16:56:37;25.02;;;12.80;;
78716;SDS011;68045;50.042;14.432;2023-12-07T17:00:38;31.20;;;13.10;;
78716;SDS011;68045;50.042;14.432;2023-12-07T17:04:40;27.25;;;12.50;;
78716;SDS011;68045;50.042;14.432;2023-12-07T17:08:41;26.25;;;12.98;;
78716;SDS011;68045;50.042;14.432;2023-12-07T17:12:42;27.15;;;11.38;;
78716;SDS011;68045;50.042;14.432;2023-12-07T17:16:44;29.65;;;11.43;;
78716;SDS011;68045;50.042;14.432;2023-12-07T17:20:45;29.95;;;15.32;;
78716;SDS011;68045;50.042;14.432;2023-12-07T17:24:46;28.02;;;13.18;;
78716;SDS011;68045;50.042;14.432;2023-12-07T17:28:47;27.48;;;13.45;;
78716;SDS011;68045;50.042;14.432;2023-12-07T17:32:48;27.48;;;13.48;;
78716;SDS011;68045;50.042;14.432;2023-12-07T17:36:49;26.20;;;13.07;;
78716;SDS011;68045;50.042;14.432;2023-12-07T17:40:50;33.40;;;12.35;;
78716;SDS011;68045;50.042;14.432;2023-12-07T17:44:51;20.13;;;9.95;;
78716;SDS011;68045;50.042;14.432;2023-12-07T17:48:52;28.88;;;13.23;;
78716;SDS011;68045;50.042;14.432;2023-12-07T17:52:53;29.55;;;13.90;;
78716;SDS011;68045;50.042;14.432;2023-12-07T17:56:54;26.70;;;11.40;;
78716;SDS011;68045;50.042;14.432;2023-12-07T18:00:55;28.33;;;13.05;;
78716;SDS011;68045;50.042;14.432;2023-12-07T18:04:55;29.75;;;14.52;;
78716;SDS011;68045;50.042;14.432;2023-12-07T18:08:56;26.63;;;13.43;;
78716;SDS011;68045;50.042;14.432;2023-12-07T18:12:57;29.42;;;13.30;;
78716;SDS011;68045;50.042;14.432;2023-12-07T18:16:58;27.63;;;14.05;;
78716;SDS011;68045;50.042;14.432;2023-12-07T18:20:59;28.42;;;14.10;;
78716;SDS011;68045;50.042;14.432;2023-12-07T18:25:00;33.80;;;15.10;;
78716;SDS011;68045;50.042;14.432;2023-12-07T18:29:01;33.75;;;14.93;;
78716;SDS011;68045;50.042;14.432;2023-12-07T18:33:02;32.15;;;15.15;;
78716;SDS011;68045;50.042;14.432;2023-12-07T18:37:03;27.65;;;13.18;;
78716;SDS011;68045;50.042;14.432;2023-12-07T18:41:04;36.95;;;13.68;;
78716;SDS011;68045;50.042;14.432;2023-12-07T18:45:05;26.65;;;13.25;;
78716;SDS011;68045;50.042;14.432;2023-12-07T18:49:06;34.15;;;15.77;;
78716;SDS011;68045;50.042;14.432;2023-12-07T18:53:07;35.30;;;16.30;;
78716;SDS011;68045;50.042;14.432;2023-12-07T18:57:08;29.95;;;14.30;;
78716;SDS011;68045;50.042;14.432;2023-12-07T19:01:09;31.88;;;13.25;;
78716;SDS011;68045;50.042;14.432;2023-12-07T19:05:10;31.60;;;14.10;;
78716;SDS011;68045;50.042;14.432;2023-12-07T19:09:11;35.63;;;15.68;;
78716;SDS011;68045;50.042;14.432;2023-12-07T19:13:13;34.60;;;15.88;;
78716;SDS011;68045;50.042;14.432;2023-12-07T19:17:14;30.63;;;15.25;;
78716;SDS011;68045;50.042;14.432;2023-12-07T19:21:15;29.95;;;14.40;;
78716;SDS011;68045;50.042;14.432;2023-12-07T19:25:15;27.25;;;13.60;;
78716;SDS011;68045;50.042;14.432;2023-12-07T19:29:16;35.78;;;15.13;;
78716;SDS011;68045;50.042;14.432;2023-12-07T19:33:17;35.30;;;16.98;;
78716;SDS011;68045;50.042;14.432;2023-12-07T19:37:18;32.35;;;15.95;;
78716;SDS011;68045;50.042;14.432;2023-12-07T19:41:19;25.92;;;14.50;;
78716;SDS011;68045;50.042;14.432;2023-12-07T19:45:19;29.20;;;15.80;;
78716;SDS011;68045;50.042;14.432;2023-12-07T19:49:20;21.23;;;11.27;;
78716;SDS011;68045;50.042;14.432;2023-12-07T19:53:21;24.98;;;12.20;;
78716;SDS011;68045;50.042;14.432;2023-12-07T19:57:22;31.17;;;13.13;;
78716;SDS011;68045;50.042;14.432;2023-12-07T20:01:23;34.58;;;15.70;;
78716;SDS011;68045;50.042;14.432;2023-12-07T20:05:24;32.25;;;14.90;;
78716;SDS011;68045;50.042;14.432;2023-12-07T20:09:25;27.10;;;15.40;;
78716;SDS011;68045;50.042;14.432;2023-12-07T20:13:25;33.72;;;13.55;;
78716;SDS011;68045;50.042;14.432;2023-12-07T20:17:26;35.60;;;16.08;;
78716;SDS011;68045;50.042;14.432;2023-12-07T20:21:27;34.03;;;15.75;;
78716;SDS011;68045;50.042;14.432;2023-12-07T20:25:28;28.92;;;15.35;;
78716;SDS011;68045;50.042;14.432;2023-12-07T20:29:29;37.15;;;15.73;;
78716;SDS011;68045;50.042;14.432;2023-12-07T20:33:30;28.55;;;14.63;;
78716;SDS011;68045;50.042;14.432;2023-12-07T20:37:30;30.55;;;14.38;;
78716;SDS011;68045;50.042;14.432;2023-12-07T20:41:32;29.23;;;14.23;;
78716;SDS011;68045;50.042;14.432;2023-12-07T20:45:33;27.23;;;12.65;;
78716;SDS011;68045;50.042;14.432;2023-12-07T20:49:34;25.48;;;12.05;;
78716;SDS011;68045;50.042;14.432;2023-12-07T20:53:35;29.08;;;12.20;;
78716;SDS011;68045;50.042;14.432;2023-12-07T20:57:35;28.60;;;14.27;;
78716;SDS011;68045;50.042;14.432;2023-12-07T21:01:36;36.88;;;16.83;;
78716;SDS011;68045;50.042;14.432;2023-12-07T21:05:37;34.78;;;15.40;;
78716;SDS011;68045;50.042;14.432;2023-12-07T21:09:38;37.45;;;16.15;;
78716;SDS011;68045;50.042;14.432;2023-12-07T21:13:39;30.17;;;13.48;;
78716;SDS011;68045;50.042;14.432;2023-12-07T21:17:40;34.45;;;15.82;;
78716;SDS011;68045;50.042;14.432;2023-12-07T21:21:40;31.08;;;15.75;;
78716;SDS011;68045;50.042;14.432;2023-12-07T21:25:42;26.42;;;13.70;;
78716;SDS011;68045;50.042;14.432;2023-12-07T21:29:43;27.55;;;13.90;;
78716;SDS011;68045;50.042;14.432;2023-12-07T21:33:44;32.78;;;14.68;;
78716;SDS011;68045;50.042;14.432;2023-12-07T21:37:44;30.60;;;13.95;;
78716;SDS011;68045;50.042;14.432;2023-12-07T21:41:45;28.60;;;14.10;;
78716;SDS011;68045;50.042;14.432;2023-12-07T21:45:50;36.63;;;16.15;;
78716;SDS011;68045;50.042;14.432;2023-12-07T21:49:51;31.60;;;14.55;;
78716;SDS011;68045;50.042;14.432;2023-12-07T21:53:52;31.27;;;14.38;;
78716;SDS011;68045;50.042;14.432;2023-12-07T21:57:52;32.55;;;15.60;;
78716;SDS011;68045;50.042;14.432;2023-12-07T22:01:53;35.40;;;15.15;;
78716;SDS011;68045;50.042;14.432;2023-12-07T22:05:54;36.05;;;15.45;;
78716;SDS011;68045;50.042;14.432;2023-12-07T22:09:55;32.72;;;15.38;;
78716;SDS011;68045;50.042;14.432;2023-12-07T22:13:56;27.90;;;13.55;;
78716;SDS011;68045;50.042;14.432;2023-12-07T22:17:57;29.88;;;13.20;;
78716;SDS011;68045;50.042;14.432;2023-12-07T22:21:58;33.20;;;16.08;;
78716;SDS011;68045;50.042;14.432;2023-12-07T22:25:59;32.47;;;15.52;;
78716;SDS011;68045;50.042;14.432;2023-12-07T22:29:59;38.25;;;16.90;;
78716;SDS011;68045;50.042;14.432;2023-12-07T22:34:01;37.03;;;17.35;;
78716;SDS011;68045;50.042;14.432;2023-12-07T22:38:01;28.92;;;14.02;;
78716;SDS011;68045;50.042;14.432;2023-12-07T22:42:02;30.88;;;13.65;;
78716;SDS011;68045;50.042;14.432;2023-12-07T22:46:05;34.67;;;15.45;;
78716;SDS011;68045;50.042;14.432;2023-12-07T22:50:06;31.88;;;15.60;;
78716;SDS011;68045;50.042;14.432;2023-12-07T22:54:07;30.25;;;13.27;;
78716;SDS011;68045;50.042;14.432;2023-12-07T22:58:08;25.25;;;12.68;;
78716;SDS011;68045;50.042;14.432;2023-12-07T23:02:09;28.55;;;13.43;;
78716;SDS011;68045;50.042;14.432;2023-12-07T23:06:10;29.60;;;14.90;;
78716;SDS011;68045;50.042;14.432;2023-12-07T23:10:10;29.10;;;12.60;;
78716;SDS011;68045;50.042;14.432;2023-12-07T23:14:11;34.63;;;14.38;;
78716;SDS011;68045;50.042;14.432;2023-12-07T23:18:13;33.50;;;14.90;;
78716;SDS011;68045;50.042;14.432;2023-12-07T23:22:13;28.90;;;14.60;;
78716;SDS011;68045;50.042;14.432;2023-12-07T23:26:14;24.38;;;11.38;;